Time;durP1;ratioP1;P1;durP2;ratioP2;P2;SDS_P1;SDS_P2;PMS_P1;PMS_P2;Temp;Humidity;BMP_temperature;BMP_pressure;BME280_temperature;BME280_humidity;BME280_pressure;Samples;Min_cycle;Max_cycle;Signal;HPM_P1;HPM_P2
2022/01/31 00:00:10;;;;;;;75.85;58.83;;;;;;;5.40;73.03;101529.22;4990774;28;20471;-81
2022/01/31 00:02:38;;;;;;;72.45;58.50;;;;;;;4.81;72.68;101427.91;4990910;28;20049;-81
2022/01/31 00:05:05;;;;;;;71.45;58.30;;;;;;;5.35;72.52;101507.53;4990803;28;20066;-81
2022/01/31 00:07:31;;;;;;;72.87;59.50;;;;;;;5.30;72.42;101510.41;4991238;28;20046;-81
2022/01/31 00:09:58;;;;;;;73.47;60.47;;;;;;;4.93;72.78;101459.69;4999833;28;20144;-82
2022/01/31 00:12:30;;;;;;;73.38;63.22;;;;;;;5.07;73.24;101485.28;5011774;28;20140;-82
2022/01/31 00:15:02;;;;;;;77.53;61.78;;;;;;;4.32;73.22;101364.63;5011734;28;20703;-82
2022/01/31 00:17:28;;;;;;;69.65;58.78;;;;;;;4.93;72.89;101470.22;4994187;28;20077;-81
2022/01/31 00:19:55;;;;;;;73.27;60.37;;;;;;;3.45;73.00;101210.50;5010702;28;20163;-81
2022/01/31 00:22:22;;;;;;;74.88;60.35;;;;;;;4.56;73.40;101397.56;5010664;28;20089;-82
2022/01/31 00:24:49;;;;;;;70.10;58.33;;;;;;;4.28;73.55;101364.78;5010301;28;20133;-82
2022/01/31 00:27:16;;;;;;;74.50;59.97;;;;;;;5.10;73.43;101506.19;5009396;28;20070;-82
2022/01/31 00:29:42;;;;;;;76.30;60.73;;;;;;;4.72;73.10;101435.31;4994172;28;20046;-81
2022/01/31 00:32:09;;;;;;;69.87;59.57;;;;;;;5.08;73.01;101494.03;5011397;28;20045;-82
2022/01/31 00:34:36;;;;;;;68.07;59.87;;;;;;;5.00;73.36;101485.66;5011225;28;20480;-81
2022/01/31 00:37:03;;;;;;;76.97;60.60;;;;;;;4.70;73.41;101428.44;5010439;28;20512;-82
2022/01/31 00:39:33;;;;;;;71.90;58.67;;;;;;;4.95;73.71;101487.69;5010398;28;20053;-82
2022/01/31 00:42:00;;;;;;;73.30;61.43;;;;;;;4.93;73.92;101480.72;5009949;28;20133;-83
2022/01/31 00:44:37;;;;;;;70.23;59.43;;;;;;;4.62;74.13;101412.19;5011522;28;20052;-83
2022/01/31 00:47:15;;;;;;;72.07;59.60;;;;;;;4.85;73.80;101451.31;5011256;28;20046;-82
2022/01/31 00:49:49;;;;;;;69.63;56.17;;;;;;;4.13;73.90;101317.44;5009936;28;20046;-82
2022/01/31 00:52:16;;;;;;;72.73;58.57;;;;;;;3.82;74.00;101240.16;5009686;28;20081;-81
2022/01/31 00:54:43;;;;;;;70.97;59.43;;;;;;;4.10;73.39;101259.75;5010113;28;20073;-82
2022/01/31 00:57:10;;;;;;;72.70;58.77;;;;;;;5.21;73.11;101437.16;5009852;28;20088;-81
2022/01/31 00:59:37;;;;;;;67.63;56.37;;;;;;;4.82;73.28;101377.81;5009501;28;20068;-81
2022/01/31 01:02:03;;;;;;;67.63;56.70;;;;;;;5.01;73.12;101397.91;5009313;28;20283;-82
2022/01/31 01:04:30;;;;;;;69.13;57.97;;;;;;;4.50;72.90;101309.34;5009525;28;20399;-82
2022/01/31 01:06:57;;;;;;;70.80;57.07;;;;;;;4.95;73.44;101380.63;5009600;28;20407;-81
2022/01/31 01:09:23;;;;;;;65.20;55.77;;;;;;;5.12;73.15;101400.81;5004349;28;20081;-82
2022/01/31 01:11:50;;;;;;;66.68;54.58;;;;;;;5.20;73.24;101410.94;4989305;28;20061;-82
2022/01/31 01:14:17;;;;;;;69.10;56.67;;;;;;;4.99;72.97;101353.25;4989748;28;20077;-82
2022/01/31 01:16:43;;;;;;;67.37;56.73;;;;;;;4.89;73.17;101363.41;4989658;28;20113;-81
2022/01/31 01:19:10;;;;;;;64.30;55.43;;;;;;;5.00;72.66;101399.69;4989099;28;20559;-83
2022/01/31 01:21:40;;;;;;;74.07;56.83;;;;;;;4.54;73.07;101319.69;4990294;28;20050;-82
2022/01/31 01:24:07;;;;;;;64.73;54.80;;;;;;;4.80;73.53;101363.88;4990208;28;20086;-82
2022/01/31 01:26:34;;;;;;;68.27;55.17;;;;;;;4.84;73.33;101377.75;4989244;28;20046;-82
2022/01/31 01:29:00;;;;;;;69.00;56.70;;;;;;;4.99;73.38;101390.09;4988953;28;20053;-81
2022/01/31 01:31:27;;;;;;;66.80;54.83;;;;;;;4.86;73.13;101374.09;4989068;28;20082;-82
2022/01/31 01:33:57;;;;;;;65.87;55.07;;;;;;;3.82;73.06;101198.13;4989742;28;20050;-81
2022/01/31 01:36:23;;;;;;;70.43;53.83;;;;;;;4.07;73.07;101243.22;4990801;28;20090;-81
2022/01/31 01:38:50;;;;;;;67.23;55.00;;;;;;;4.78;73.26;101364.91;4989712;28;20051;-82
2022/01/31 01:41:17;;;;;;;61.87;51.97;;;;;;;4.60;73.79;101327.28;4989460;28;20519;-82
2022/01/31 01:43:44;;;;;;;65.77;53.70;;;;;;;4.84;73.48;101361.97;4990173;28;20145;-82
2022/01/31 01:46:10;;;;;;;69.13;54.37;;;;;;;4.56;73.89;101313.41;4989825;28;20073;-82
2022/01/31 01:48:37;;;;;;;65.83;54.23;;;;;;;4.40;73.57;101289.72;4989454;28;20555;-81
2022/01/31 01:51:04;;;;;;;67.57;53.83;;;;;;;4.67;73.76;101334.75;4990096;28;20089;-82
2022/01/31 01:53:32;;;;;;;70.27;53.17;;;;;;;4.60;74.08;101306.22;4989692;28;20056;-83
2022/01/31 01:55:59;;;;;;;63.43;52.57;;;;;;;4.75;73.29;101339.59;4989607;28;20104;-81
2022/01/31 01:58:30;;;;;;;65.13;53.93;;;;;;;4.77;73.32;101337.75;4989524;28;20050;-81
2022/01/31 02:01:01;;;;;;;64.43;53.60;;;;;;;4.47;73.38;101293.72;4988288;28;20137;-81
2022/01/31 02:03:30;;;;;;;66.93;52.63;;;;;;;4.78;74.14;101334.19;4984514;28;20144;-82
2022/01/31 02:05:58;;;;;;;59.40;49.23;;;;;;;4.64;73.53;101273.59;4986644;28;20073;-82
2022/01/31 02:08:27;;;;;;;59.27;48.47;;;;;;;4.88;74.26;101309.09;4988340;28;20508;-82
2022/01/31 02:10:54;;;;;;;63.40;51.77;;;;;;;4.79;73.45;101292.97;5006164;28;20045;-82
2022/01/31 02:13:24;;;;;;;60.30;50.20;;;;;;;4.71;73.68;101282.84;5008982;28;20471;-82
2022/01/31 02:15:51;;;;;;;59.80;51.37;;;;;;;4.81;73.93;101297.19;5007799;28;20041;-82
2022/01/31 02:18:22;;;;;;;63.40;52.37;;;;;;;4.69;72.77;101288.19;5008301;28;20320;-82
2022/01/31 02:20:49;;;;;;;61.53;50.67;;;;;;;4.69;72.89;101303.13;5009451;28;20054;-82
2022/01/31 02:23:17;;;;;;;61.40;50.20;;;;;;;4.27;73.71;101221.19;5008044;28;20060;-81
2022/01/31 02:26:02;;;;;;;68.73;51.27;;;;;;;3.18;73.59;101031.63;5008040;28;20625;-81
2022/01/31 02:28:38;;;;;;;64.37;50.53;;;;;;;4.59;73.31;101254.59;5006820;28;20108;-83
2022/01/31 02:31:06;;;;;;;60.30;49.90;;;;;;;4.61;73.64;101271.09;5007584;28;20054;-82
2022/01/31 02:33:33;;;;;;;63.50;50.97;;;;;;;4.42;73.83;101232.66;5009288;28;20046;-82
2022/01/31 02:36:02;;;;;;;61.83;50.27;;;;;;;4.27;74.39;101212.41;5007778;28;20392;-81
2022/01/31 02:38:30;;;;;;;58.50;49.63;;;;;;;4.06;74.05;101178.47;5008037;28;20080;-82
2022/01/31 02:40:57;;;;;;;56.80;46.30;;;;;;;4.75;73.93;101252.78;5007803;28;20108;-82
2022/01/31 02:43:33;;;;;;;58.47;46.90;;;;;;;4.70;73.47;101239.06;5008777;28;20050;-81
2022/01/31 02:46:01;;;;;;;63.20;48.33;;;;;;;4.62;73.45;101218.44;5007239;28;20058;-82
2022/01/31 02:48:31;;;;;;;59.57;47.97;;;;;;;4.73;72.89;101249.41;5007041;28;20429;-82
2022/01/31 02:50:58;;;;;;;54.67;47.58;;;;;;;4.46;73.64;101221.03;5007466;28;20460;-82
2022/01/31 02:53:31;;;;;;;57.80;46.50;;;;;;;4.29;73.77;101194.78;5007713;28;20385;-82
2022/01/31 02:56:00;;;;;;;53.50;46.30;;;;;;;4.56;74.04;101233.69;5007218;28;20407;-82
2022/01/31 02:58:28;;;;;;;53.67;46.27;;;;;;;4.33;74.27;101196.34;5007076;28;20052;-82
2022/01/31 03:00:57;;;;;;;55.80;46.50;;;;;;;4.48;73.80;101229.69;5006810;28;20488;-82
2022/01/31 03:03:24;;;;;;;54.77;44.07;;;;;;;4.50;74.15;101242.75;5004106;28;20054;-82
2022/01/31 03:05:51;;;;;;;52.47;43.87;;;;;;;4.32;74.21;101205.16;5003612;28;20160;-83
2022/01/31 03:08:18;;;;;;;51.40;42.53;;;;;;;4.49;74.36;101217.38;5004460;28;20050;-82
2022/01/31 03:10:45;;;;;;;51.80;42.13;;;;;;;4.35;73.65;101186.59;4989061;28;20078;-81
2022/01/31 03:13:12;;;;;;;50.47;41.33;;;;;;;4.73;73.91;101207.31;4969402;28;20055;-82
2022/01/31 03:15:38;;;;;;;48.87;41.13;;;;;;;4.49;73.37;101180.56;4984070;28;20157;-82
2022/01/31 03:18:06;;;;;;;47.03;41.87;;;;;;;4.52;73.62;101175.16;4982589;28;20075;-82
2022/01/31 03:20:33;;;;;;;50.77;41.27;;;;;;;3.77;73.71;101056.53;4968845;28;20061;-81
2022/01/31 03:23:00;;;;;;;49.37;41.03;;;;;;;4.48;73.77;101177.09;4984283;28;20132;-82
2022/01/31 03:25:27;;;;;;;52.63;41.30;;;;;;;4.06;73.68;101107.53;4984313;28;20146;-83
2022/01/31 03:27:53;;;;;;;51.73;43.03;;;;;;;4.34;73.21;101155.97;4967807;28;20060;-82
2022/01/31 03:30:22;;;;;;;46.53;40.20;;;;;;;4.56;73.74;101181.94;4983837;28;20387;-81
2022/01/31 03:32:49;;;;;;;50.40;41.00;;;;;;;4.39;73.68;101164.44;4969338;28;20049;-81
2022/01/31 03:35:17;;;;;;;57.53;40.97;;;;;;;4.43;73.41;101159.88;4975223;28;20430;-82
2022/01/31 03:37:44;;;;;;;49.00;39.07;;;;;;;4.53;73.15;101181.25;4991669;28;20467;-83
2022/01/31 03:40:11;;;;;;;46.40;38.47;;;;;;;4.28;73.10;101144.00;4990154;28;20051;-83
2022/01/31 03:42:38;;;;;;;48.27;38.73;;;;;;;2.94;72.85;100926.22;4984701;28;20056;-82
2022/01/31 03:45:07;;;;;;;48.83;40.87;;;;;;;4.43;73.26;101173.03;4969300;28;20047;-82
2022/01/31 03:47:36;;;;;;;44.87;39.40;;;;;;;4.10;72.71;101137.09;4984140;28;20049;-80
2022/01/31 03:50:03;;;;;;;48.10;39.97;;;;;;;3.93;73.61;101109.13;4984060;28;20210;-82
2022/01/31 03:52:30;;;;;;;47.47;39.63;;;;;;;3.85;73.42;101095.53;4983911;28;20050;-81
2022/01/31 03:54:57;;;;;;;48.43;40.80;;;;;;;4.06;73.59;101115.41;4984092;28;20121;-81
2022/01/31 03:57:23;;;;;;;44.47;38.40;;;;;;;3.93;73.15;101088.09;4983826;28;20349;-82
2022/01/31 03:59:50;;;;;;;46.87;39.60;;;;;;;4.20;73.79;101116.44;4983549;28;20054;-82
2022/01/31 04:02:16;;;;;;;50.90;40.57;;;;;;;4.38;73.34;101140.88;4983574;28;20066;-82
2022/01/31 04:04:43;;;;;;;52.17;39.70;;;;;;;4.37;72.94;101139.16;4983933;28;20103;-82
2022/01/31 04:07:10;;;;;;;46.20;38.13;;;;;;;4.23;73.41;101137.31;4983739;28;20133;-82
2022/01/31 04:09:37;;;;;;;45.10;37.93;;;;;;;4.35;73.49;101155.03;4974449;28;20133;-82
2022/01/31 04:12:04;;;;;;;46.70;37.70;;;;;;;4.38;73.80;101151.41;4987963;28;20477;-80
2022/01/31 04:14:30;;;;;;;43.77;37.70;;;;;;;3.05;72.50;100936.97;5003065;28;20050;-83
2022/01/31 04:16:59;;;;;;;46.40;37.00;;;;;;;3.86;73.26;101052.59;5003376;28;20137;-83
2022/01/31 04:19:26;;;;;;;44.50;37.37;;;;;;;3.98;72.67;101067.69;5004106;28;20129;-81
2022/01/31 04:21:52;;;;;;;45.50;35.97;;;;;;;4.41;72.69;101125.78;5002940;28;20043;-81
2022/01/31 04:24:23;;;;;;;48.67;37.23;;;;;;;3.84;73.05;101034.28;5002873;28;20133;-82
2022/01/31 04:26:59;;;;;;;43.17;36.50;;;;;;;3.20;72.81;100915.19;5002484;28;20133;-82
2022/01/31 04:29:31;;;;;;;40.87;35.73;;;;;;;4.32;73.02;101092.13;5002534;28;20133;-81
2022/01/31 04:31:58;;;;;;;47.65;36.03;;;;;;;3.84;73.17;101004.53;5002633;28;20314;-82
2022/01/31 04:34:26;;;;;;;45.33;36.80;;;;;;;3.72;72.70;100992.06;5003140;28;20226;-82
2022/01/31 04:36:53;;;;;;;46.43;34.67;;;;;;;4.42;72.83;101088.06;5003062;28;20056;-83
2022/01/31 04:39:19;;;;;;;38.23;33.00;;;;;;;4.35;72.96;101046.44;5002675;28;20150;-84
2022/01/31 04:41:48;;;;;;;36.27;32.10;;;;;;;4.50;72.77;101080.56;5002410;28;20050;-82
2022/01/31 04:44:16;;;;;;;38.37;29.63;;;;;;;4.48;73.21;101068.44;5002637;28;20053;-83
2022/01/31 04:46:45;;;;;;;36.70;27.70;;;;;;;4.47;73.02;101051.00;4987738;28;20150;-83
2022/01/31 04:49:12;;;;;;;37.30;29.10;;;;;;;4.49;72.71;101064.88;5002708;28;20058;-83
2022/01/31 04:51:39;;;;;;;41.07;31.10;;;;;;;4.39;73.10;101055.81;5002590;28;20249;-84
2022/01/31 04:54:05;;;;;;;37.43;32.70;;;;;;;4.36;72.82;101037.59;4986957;28;20053;-83
2022/01/31 04:56:33;;;;;;;31.20;26.20;;;;;;;4.52;73.08;101029.72;5004884;28;20058;-83
2022/01/31 04:58:59;;;;;;;29.70;26.20;;;;;;;4.57;72.42;101020.59;4987442;28;20505;-82
2022/01/31 05:01:27;;;;;;;31.10;27.10;;;;;;;4.41;72.54;101018.00;5003782;28;20046;-82
2022/01/31 05:03:54;;;;;;;33.57;27.90;;;;;;;4.40;72.93;101028.63;5005619;28;20111;-83
2022/01/31 05:06:28;;;;;;;31.40;26.43;;;;;;;4.30;73.34;101025.66;5007048;28;20100;-83
2022/01/31 05:08:55;;;;;;;32.53;27.20;;;;;;;4.25;73.48;101006.66;5005766;28;20327;-84
2022/01/31 05:11:21;;;;;;;28.17;25.20;;;;;;;4.00;73.31;100973.84;5005604;28;20050;-82
2022/01/31 05:13:48;;;;;;;30.07;26.20;;;;;;;4.17;73.42;100979.94;5006510;28;20125;-82
2022/01/31 05:16:14;;;;;;;32.10;26.00;;;;;;;4.38;73.17;100984.00;5005605;28;20049;-83
2022/01/31 05:18:43;;;;;;;27.27;23.90;;;;;;;4.59;72.62;100999.50;5005511;28;20496;-83
2022/01/31 05:21:11;;;;;;;28.23;24.93;;;;;;;4.58;72.56;100977.59;5005389;28;20058;-83
2022/01/31 05:23:37;;;;;;;28.17;24.00;;;;;;;4.50;73.04;100985.09;5006606;28;20068;-83
2022/01/31 05:26:04;;;;;;;26.50;23.23;;;;;;;4.56;72.95;100986.50;5005675;28;20052;-83
2022/01/31 05:28:32;;;;;;;25.83;23.10;;;;;;;4.52;72.80;100987.63;5005707;28;20141;-84
2022/01/31 05:30:58;;;;;;;24.47;21.80;;;;;;;4.31;72.64;100951.13;5005189;28;20048;-81
2022/01/31 05:33:25;;;;;;;26.87;23.47;;;;;;;4.32;72.96;100958.06;5005489;28;20132;-83
2022/01/31 05:35:52;;;;;;;27.17;23.00;;;;;;;4.25;73.47;100941.81;5005402;28;20137;-83
2022/01/31 05:38:19;;;;;;;24.77;20.77;;;;;;;4.43;73.07;100975.84;5007046;28;20132;-83
2022/01/31 05:40:46;;;;;;;30.80;22.00;;;;;;;4.16;71.73;100920.47;5005780;28;20415;-83
2022/01/31 05:43:13;;;;;;;29.23;22.63;;;;;;;4.14;71.62;100938.94;5008882;28;20054;-82
2022/01/31 05:45:40;;;;;;;31.47;28.07;;;;;;;4.14;70.48;100952.06;5000995;28;20496;-83
2022/01/31 05:48:06;;;;;;;37.03;30.67;;;;;;;4.25;69.25;100977.75;4987787;28;20246;-83
2022/01/31 05:50:33;;;;;;;39.33;33.37;;;;;;;4.13;69.50;100973.19;4987660;28;20153;-84
2022/01/31 05:53:00;;;;;;;42.40;34.37;;;;;;;3.81;69.44;100937.28;4987628;28;20137;-83
2022/01/31 05:55:27;;;;;;;41.47;35.00;;;;;;;3.76;68.69;100943.69;4987759;28;20050;-82
2022/01/31 05:57:53;;;;;;;39.20;35.17;;;;;;;3.70;69.04;100917.78;4988666;28;20066;-83
2022/01/31 06:00:21;;;;;;;42.57;36.97;;;;;;;3.54;67.83;100908.09;4985941;28;20176;-82
2022/01/31 06:02:55;;;;;;;40.83;36.37;;;;;;;3.34;68.11;100935.44;4985226;28;20065;-82
2022/01/31 06:05:21;;;;;;;43.73;35.60;;;;;;;3.16;69.42;100929.41;4994789;28;20050;-82
2022/01/31 06:07:49;;;;;;;39.30;35.00;;;;;;;3.02;69.62;100904.81;5004890;28;20057;-83
2022/01/31 06:10:16;;;;;;;38.30;33.80;;;;;;;2.88;69.35;100888.03;4993635;28;20058;-83
2022/01/31 06:12:45;;;;;;;36.23;32.03;;;;;;;2.83;70.16;100894.44;4985170;28;20153;-81
2022/01/31 06:15:15;;;;;;;36.93;32.93;;;;;;;2.94;70.25;100920.97;4986268;28;20393;-82
2022/01/31 06:17:41;;;;;;;41.63;35.60;;;;;;;2.75;70.75;100893.06;4985299;28;20408;-81
2022/01/31 06:20:08;;;;;;;44.37;36.33;;;;;;;3.02;70.56;100928.44;4984891;28;20046;-82
2022/01/31 06:22:42;;;;;;;40.70;33.17;;;;;;;2.91;69.98;100900.13;4985166;28;20268;-81
2022/01/31 06:25:11;;;;;;;40.67;33.97;;;;;;;2.86;70.56;100915.25;4984789;28;20086;-83
2022/01/31 06:27:38;;;;;;;36.90;32.90;;;;;;;2.92;70.80;100917.56;4989219;28;20096;-81
2022/01/31 06:30:05;;;;;;;37.90;33.83;;;;;;;2.97;70.14;100926.88;5005282;28;20148;-82
2022/01/31 06:32:32;;;;;;;37.37;33.00;;;;;;;2.50;70.02;100848.06;5005530;28;20050;-81
2022/01/31 06:34:59;;;;;;;36.53;30.90;;;;;;;2.52;70.50;100848.81;4993378;28;20054;-81
2022/01/31 06:37:25;;;;;;;40.53;32.43;;;;;;;2.76;69.98;100888.66;4984566;28;20534;-81
2022/01/31 06:39:52;;;;;;;37.27;33.10;;;;;;;3.05;70.00;100923.84;4984390;28;20124;-81
2022/01/31 06:42:18;;;;;;;38.73;33.27;;;;;;;3.06;69.82;100908.97;4985744;28;20157;-82
2022/01/31 06:44:45;;;;;;;39.03;34.07;;;;;;;2.98;69.60;100904.13;4986977;28;20061;-81
2022/01/31 06:47:12;;;;;;;38.03;32.27;;;;;;;2.84;70.23;100904.00;4986756;28;20404;-81
2022/01/31 06:49:38;;;;;;;36.57;32.33;;;;;;;3.03;69.49;100938.81;4987123;28;20792;-82
2022/01/31 06:52:05;;;;;;;37.97;32.57;;;;;;;2.53;69.60;100871.50;4985273;28;20050;-82
2022/01/31 06:54:32;;;;;;;36.63;31.10;;;;;;;2.65;69.91;100896.25;4988099;28;20496;-81
2022/01/31 06:57:00;;;;;;;37.83;31.90;;;;;;;2.76;70.05;100918.34;4992779;28;20054;-84
2022/01/31 06:59:27;;;;;;;35.73;30.63;;;;;;;2.21;69.98;100808.50;5012023;28;20398;-82
2022/01/31 07:01:59;;;;;;;40.60;33.75;;;;;;;2.54;70.82;100852.22;5023034;28;20062;-82
2022/01/31 07:04:26;;;;;;;38.77;32.90;;;;;;;2.44;70.66;100828.25;5010100;28;20057;-81
2022/01/31 07:06:54;;;;;;;40.93;31.10;;;;;;;2.89;71.20;100909.84;5011665;28;20049;-82
2022/01/31 07:09:22;;;;;;;38.60;31.23;;;;;;;2.97;71.30;100923.41;5023148;28;20132;-82
2022/01/31 07:11:51;;;;;;;36.43;29.67;;;;;;;3.04;70.79;100924.78;5008644;28;20061;-82
2022/01/31 07:14:30;;;;;;;38.93;29.53;;;;;;;3.06;71.11;100915.06;4990834;28;20656;-82
2022/01/31 07:16:59;;;;;;;37.93;31.40;;;;;;;3.12;71.13;100913.91;5007813;28;20141;-82
2022/01/31 07:19:28;;;;;;;38.33;30.73;;;;;;;3.15;71.76;100901.44;5010625;28;20730;-82
2022/01/31 07:21:55;;;;;;;41.20;33.30;;;;;;;3.19;72.04;100900.38;5012836;28;20046;-81
2022/01/31 07:24:29;;;;;;;40.87;34.23;;;;;;;3.27;71.74;100867.63;5008637;28;20417;-83
2022/01/31 07:26:56;;;;;;;43.87;33.87;;;;;;;3.39;73.42;100865.16;4991173;28;20054;-80
2022/01/31 07:29:24;;;;;;;45.03;34.80;;;;;;;3.49;73.35;100847.13;5006572;28;20500;-82
2022/01/31 07:31:56;;;;;;;42.45;34.58;;;;;;;3.68;73.23;100836.47;4990902;28;20127;-81
2022/01/31 07:34:24;;;;;;;40.97;33.03;;;;;;;3.66;73.15;100811.22;4990748;28;20416;-82
2022/01/31 07:36:52;;;;;;;39.10;30.23;;;;;;;3.83;73.16;100818.97;5007252;28;20256;-82
2022/01/31 07:39:20;;;;;;;31.47;26.87;;;;;;;3.71;73.18;100785.56;5008464;28;20278;-83
2022/01/31 07:41:48;;;;;;;32.50;25.47;;;;;;;3.93;72.43;100801.78;4990817;28;20149;-82
2022/01/31 07:44:15;;;;;;;28.37;23.67;;;;;;;3.93;71.72;100798.28;5007517;28;20213;-82
2022/01/31 07:46:43;;;;;;;27.27;23.43;;;;;;;3.96;71.63;100803.38;4989678;28;20084;-82
2022/01/31 07:49:13;;;;;;;31.40;26.67;;;;;;;3.54;71.44;100719.09;4989605;28;20058;-82
2022/01/31 07:51:41;;;;;;;27.83;24.83;;;;;;;3.82;71.53;100759.53;4989511;28;20050;-83
2022/01/31 07:54:09;;;;;;;35.97;22.87;;;;;;;3.45;71.55;100698.66;5007461;28;20050;-82
2022/01/31 07:56:36;;;;;;;34.50;23.23;;;;;;;4.13;71.15;100773.50;4989832;28;20139;-82
2022/01/31 07:59:03;;;;;;;37.90;24.67;;;;;;;3.88;71.14;100730.25;4989599;28;20133;-84
2022/01/31 08:01:30;;;;;;;32.23;25.37;;;;;;;4.17;71.81;100756.59;5006685;28;20459;-82
2022/01/31 08:03:57;;;;;;;34.00;26.03;;;;;;;4.21;72.01;100752.84;4988983;28;20061;-82
2022/01/31 08:06:23;;;;;;;30.07;24.80;;;;;;;4.22;71.87;100763.28;4985114;28;20139;-83
2022/01/31 08:08:50;;;;;;;31.03;25.27;;;;;;;4.12;72.02;100753.41;4988428;28;20484;-82
2022/01/31 08:11:18;;;;;;;35.27;25.73;;;;;;;4.17;72.88;100770.56;4970370;28;20058;-82
2022/01/31 08:13:44;;;;;;;31.77;25.73;;;;;;;4.20;72.86;100772.16;4970088;28;20113;-80
2022/01/31 08:16:13;;;;;;;30.70;25.77;;;;;;;4.30;72.26;100797.00;4970662;28;20562;-82
2022/01/31 08:18:42;;;;;;;35.97;28.03;;;;;;;4.38;72.21;100789.47;4988230;28;20287;-84
2022/01/31 08:21:10;;;;;;;37.27;30.60;;;;;;;4.11;72.07;100738.59;4971016;28;20058;-84
2022/01/31 08:23:38;;;;;;;37.97;30.40;;;;;;;4.38;72.49;100773.72;4971011;28;20583;-83
2022/01/31 08:26:07;;;;;;;37.20;29.03;;;;;;;4.42;72.23;100783.09;4971183;28;20403;-83
2022/01/31 08:28:47;;;;;;;41.67;30.27;;;;;;;4.19;72.60;100744.22;4971037;28;20072;-82
2022/01/31 08:31:22;;;;;;;39.07;33.73;;;;;;;4.42;73.68;100769.97;4970528;28;20137;-82
2022/01/31 08:36:31;;;;;;;47.10;36.40;;;;;;;4.43;73.56;100758.50;4987775;28;20183;-82
2022/01/31 08:38:58;;;;;;;43.63;36.57;;;;;;;4.63;74.18;100783.56;4970407;28;20064;-83
2022/01/31 08:41:25;;;;;;;49.60;37.97;;;;;;;4.45;73.99;100742.63;4970378;28;20504;-81
2022/01/31 08:43:52;;;;;;;48.10;37.57;;;;;;;4.77;74.27;100789.78;4986571;28;20106;-83
2022/01/31 08:46:19;;;;;;;49.97;38.30;;;;;;;4.55;74.06;100750.81;4987882;28;20078;-83
2022/01/31 08:48:46;;;;;;;50.33;38.63;;;;;;;4.90;73.13;100796.81;4987308;28;20085;-84
2022/01/31 08:51:16;;;;;;;48.37;37.80;;;;;;;4.85;73.16;100787.50;4987366;28;20055;-82
2022/01/31 08:53:43;;;;;;;47.70;37.50;;;;;;;4.97;73.67;100820.13;4970428;28;20173;-81
2022/01/31 08:56:12;;;;;;;50.50;37.90;;;;;;;4.50;73.28;100733.53;4970262;28;20058;-81
2022/01/31 08:58:47;;;;;;;43.67;37.77;;;;;;;4.95;73.69;100808.84;4970555;28;20137;-82
2022/01/31 09:01:21;;;;;;;43.03;36.67;;;;;;;3.47;72.44;100560.31;4987094;28;20051;-82
2022/01/31 09:06:23;;;;;;;46.08;37.28;;;;;;;4.96;72.41;100794.75;4987202;28;20054;-82
2022/01/31 09:08:50;;;;;;;47.60;37.13;;;;;;;3.34;72.21;100523.44;4970147;28;20532;-83
2022/01/31 09:11:17;;;;;;;40.27;33.87;;;;;;;4.09;71.94;100645.88;4989256;28;20096;-80
2022/01/31 09:13:45;;;;;;;51.77;37.03;;;;;;;4.95;72.64;100786.00;4989758;28;20054;-78
2022/01/31 09:16:12;;;;;;;50.30;37.37;;;;;;;4.85;71.80;100748.88;4990924;28;20052;-82
2022/01/31 09:18:39;;;;;;;44.73;37.67;;;;;;;4.72;71.67;100703.28;4993710;28;20041;-83
2022/01/31 09:21:06;;;;;;;51.50;39.53;;;;;;;4.63;71.46;100659.13;4993629;28;20586;-81
2022/01/31 09:23:32;;;;;;;42.83;38.20;;;;;;;5.17;71.26;100732.88;4996456;28;20050;-81
2022/01/31 09:26:00;;;;;;;47.90;39.00;;;;;;;4.85;71.64;100677.88;5010813;28;20049;-82
2022/01/31 09:28:27;;;;;;;51.03;40.00;;;;;;;5.28;71.35;100708.47;4993271;28;20479;-83
2022/01/31 09:30:54;;;;;;;41.20;35.10;;;;;;;5.34;71.33;100701.03;5010917;28;20136;-82
2022/01/31 09:33:25;;;;;;;42.73;35.70;;;;;;;5.41;71.67;100682.19;4993401;28;20046;-82
2022/01/31 09:35:52;;;;;;;41.97;34.57;;;;;;;5.57;71.54;100675.81;5009307;28;20050;-82
2022/01/31 09:38:23;;;;;;;48.47;36.70;;;;;;;5.52;70.83;100645.47;4993206;28;20132;-82
2022/01/31 09:40:52;;;;;;;43.70;36.80;;;;;;;5.38;70.74;100611.31;5010188;28;20113;-82
2022/01/31 09:48:41;;;;;;;43.43;36.63;;;;;;;5.91;70.07;100667.41;4979251;28;20080;-81
2022/01/31 09:51:09;;;;;;;45.50;35.80;;;;;;;5.96;69.55;100639.81;5010340;28;20050;-81
2022/01/31 09:53:44;;;;;;;42.50;34.17;;;;;;;6.06;67.97;100613.69;4993239;28;20050;-83
2022/01/31 09:56:18;;;;;;;42.67;35.30;;;;;;;6.16;68.28;100609.44;4991590;28;20574;-84
2022/01/31 09:58:44;;;;;;;49.50;36.83;;;;;;;6.13;68.63;100604.38;4992616;28;20136;-82
2022/01/31 10:01:17;;;;;;;43.87;35.70;;;;;;;5.85;67.73;100551.91;5008389;28;20241;-82
2022/01/31 10:03:49;;;;;;;47.67;38.47;;;;;;;5.82;68.18;100547.69;4989317;28;20463;-83
2022/01/31 10:06:34;;;;;;;48.15;37.38;;;;;;;6.26;68.57;100598.25;4989531;28;20042;-82
2022/01/31 10:09:14;;;;;;;53.13;39.73;;;;;;;6.19;68.27;100587.31;4990923;28;20399;-82
2022/01/31 10:11:51;;;;;;;51.03;40.03;;;;;;;6.26;68.00;100578.00;4976109;28;20050;-83
2022/01/31 10:17:35;;;;;;;50.00;39.60;;;;;;;6.46;68.22;100595.06;4977463;28;20065;-82
2022/01/31 10:20:25;;;;;;;47.80;38.65;;;;;;;6.55;68.01;100573.31;4977107;28;20259;-83
2022/01/31 10:22:52;;;;;;;51.30;40.67;;;;;;;6.24;67.49;100506.13;4969739;28;20093;-82
2022/01/31 10:25:22;;;;;;;52.13;41.38;;;;;;;5.44;67.49;100350.28;4985065;28;20237;-82
2022/01/31 10:28:11;;;;;;;47.28;40.80;;;;;;;6.53;66.76;100496.06;4969043;28;20666;-82
2022/01/31 10:30:38;;;;;;;53.60;42.72;;;;;;;6.66;66.94;100497.81;4970639;28;20550;-83
2022/01/31 10:33:08;;;;;;;53.08;40.78;;;;;;;6.73;66.69;100522.78;4969589;28;20054;-83
2022/01/31 10:35:38;;;;;;;47.58;38.03;;;;;;;6.72;66.86;100521.06;4969056;28;20477;-83
2022/01/31 10:38:12;;;;;;;48.53;40.08;;;;;;;6.70;67.16;100512.44;4968776;28;20053;-82
2022/01/31 10:46:21;;;;;;;53.97;43.40;;;;;;;6.81;67.39;100499.28;4970038;28;20051;-81
2022/01/31 10:56:51;;;;;;;51.00;42.22;;;;;;;6.93;67.65;100476.41;4970389;28;20102;-83
2022/01/31 10:59:20;;;;;;;49.63;41.47;;;;;;;6.73;67.69;100438.34;4969666;28;20065;-82
2022/01/31 11:01:51;;;;;;;60.50;47.22;;;;;;;6.93;67.66;100466.69;4969109;28;20580;-81
2022/01/31 11:04:38;;;;;;;55.65;44.03;;;;;;;6.71;67.94;100420.00;4970677;28;20485;-83
2022/01/31 11:07:10;;;;;;;51.40;44.20;;;;;;;6.74;67.54;100425.03;4986711;28;20089;-83
2022/01/31 11:09:38;;;;;;;60.28;46.15;;;;;;;6.71;67.92;100419.16;4992231;28;20551;-82
2022/01/31 11:12:06;;;;;;;54.00;44.85;;;;;;;6.73;67.60;100417.25;4990663;28;20054;-83
2022/01/31 11:14:36;;;;;;;58.70;47.83;;;;;;;7.01;67.90;100459.03;5008402;28;20050;-82
2022/01/31 11:17:10;;;;;;;55.63;46.33;;;;;;;6.80;67.70;100429.03;4991501;28;20286;-82
2022/01/31 11:19:38;;;;;;;58.97;45.60;;;;;;;6.89;68.15;100444.13;4990991;28;20053;-82
2022/01/31 11:22:08;;;;;;;56.33;42.47;;;;;;;6.45;68.30;100349.91;4989868;28;20422;-82
2022/01/31 11:24:44;;;;;;;54.30;44.50;;;;;;;5.49;68.06;100182.28;4978154;28;20046;-83
2022/01/31 11:27:13;;;;;;;51.75;40.72;;;;;;;5.81;68.27;100224.63;5001319;28;20057;-85
2022/01/31 11:29:47;;;;;;;51.75;42.63;;;;;;;7.18;68.40;100443.69;4991801;28;20056;-83
2022/01/31 11:32:14;;;;;;;53.40;42.13;;;;;;;6.43;68.05;100307.81;4990255;28;20132;-83
2022/01/31 11:34:43;;;;;;;60.30;45.20;;;;;;;6.97;67.66;100394.25;5005954;28;20494;-82
2022/01/31 11:37:14;;;;;;;60.65;44.42;;;;;;;6.96;68.05;100378.53;4987130;28;20089;-84
2022/01/31 11:39:44;;;;;;;53.05;44.95;;;;;;;6.83;68.31;100371.56;5002305;28;20053;-82
2022/01/31 11:42:13;;;;;;;57.75;45.40;;;;;;;6.88;68.27;100375.66;4989152;28;20137;-82
2022/01/31 11:45:09;;;;;;;48.97;41.65;;;;;;;7.13;69.37;100408.91;5006119;28;20140;-82
2022/01/31 11:47:38;;;;;;;53.42;42.42;;;;;;;6.71;69.67;100334.75;4970403;28;20320;-82
2022/01/31 11:50:12;;;;;;;49.15;40.88;;;;;;;6.52;69.55;100278.13;5006161;28;20474;-82